createdAt,value
2022-11-28T00:00:49.404Z,57.10
2022-11-28T00:10:55.712Z,57.10
2022-11-28T00:21:07.490Z,59.80
2022-11-28T00:31:18.753Z,55.00
2022-11-28T00:41:28.187Z,55.00
2022-11-28T00:51:35.299Z,58.20
2022-11-28T01:01:44.986Z,57.50
2022-11-28T01:11:53.001Z,58.00
2022-11-28T01:21:59.235Z,58.00
2022-11-28T01:32:05.766Z,58.70
2022-11-28T01:42:20.483Z,60.10
2022-11-28T01:52:26.972Z,59.90
2022-11-28T02:02:43.625Z,59.70
2022-11-28T02:12:52.982Z,59.00
2022-11-28T02:23:19.260Z,63.80
2022-11-28T02:33:39.698Z,64.30
2022-11-28T02:44:13.379Z,64.10
2022-11-28T02:54:20.197Z,65.40
2022-11-28T03:04:46.621Z,61.80
2022-11-28T03:15:07.954Z,60.40
2022-11-28T03:25:30.276Z,61.40
2022-11-28T03:35:41.001Z,59.60
2022-11-28T03:45:51.165Z,53.50
2022-11-28T03:56:08.792Z,56.50
2022-11-28T04:06:25.184Z,50.70
2022-11-28T04:16:37.280Z,55.50
2022-11-28T04:26:47.722Z,53.70
2022-11-28T04:36:55.296Z,52.50
2022-11-28T04:47:01.626Z,52.10
2022-11-28T04:57:23.258Z,51.50
2022-11-28T05:07:29.557Z,51.90
2022-11-28T05:17:41.733Z,56.20
2022-11-28T05:27:48.830Z,58.10
2022-11-28T05:37:55.137Z,55.00
2022-11-28T05:48:01.369Z,52.20
2022-11-28T05:58:07.606Z,54.90
2022-11-28T06:08:13.899Z,49.10
2022-11-28T06:18:20.156Z,54.40
2022-11-28T06:28:26.466Z,50.90
2022-11-28T06:38:33.480Z,49.50
2022-11-28T06:48:40.465Z,49.60
2022-11-28T06:58:47.276Z,50.10
2022-11-28T07:08:55.057Z,47.20
2022-11-28T07:19:01.551Z,50.20
2022-11-28T07:29:08.645Z,48.90
2022-11-28T07:39:17.252Z,54.30
2022-11-28T07:49:23.532Z,52.20
2022-11-28T07:59:29.760Z,54.00
2022-11-28T08:09:36.094Z,52.90
2022-11-28T08:19:42.568Z,53.50
2022-11-28T08:29:53.322Z,53.90
2022-11-28T08:40:00.118Z,53.20
2022-11-28T08:50:07.116Z,54.70
2022-11-28T09:00:14.195Z,54.70
2022-11-28T09:10:20.775Z,62.00
2022-11-28T09:20:27.271Z,56.90
2022-11-28T09:30:34.664Z,55.20
2022-11-28T09:40:41.803Z,56.20
2022-11-28T09:50:48.213Z,55.40
2022-11-28T10:01:08.581Z,52.90
2022-11-28T10:11:26.091Z,56.80
2022-11-28T10:21:41.412Z,50.90
2022-11-28T10:31:48.517Z,51.80
2022-11-28T10:42:15.092Z,49.70
2022-11-28T10:52:52.926Z,48.70
2022-11-28T11:03:03.399Z,50.90
2022-11-28T11:13:20.797Z,51.20
2022-11-28T11:23:27.123Z,58.20
2022-11-28T11:33:36.586Z,53.60
2022-11-28T11:43:42.866Z,54.70
2022-11-28T11:53:49.177Z,52.30
2022-11-28T12:04:13.291Z,50.90
2022-11-28T12:14:31.194Z,46.80
2022-11-28T12:24:49.641Z,45.90
2022-11-28T12:35:07.525Z,50.30
2022-11-28T12:45:38.147Z,46.90
2022-11-28T12:56:00.292Z,42.90
2022-11-28T13:06:15.579Z,44.60
2022-11-28T13:16:27.386Z,44.50
2022-11-28T13:26:49.288Z,41.60
2022-11-28T13:47:36.515Z,41.50
2022-11-28T13:57:42.781Z,37.90
2022-11-28T14:07:49.177Z,41.20
2022-11-28T14:18:55.016Z,37.70
2022-11-28T14:28:49.875Z,38.70
2022-11-28T14:39:32.582Z,38.60
2022-11-28T14:49:38.851Z,34.10
2022-11-28T14:59:45.535Z,37.00
2022-11-28T15:10:07.480Z,40.50
2022-11-28T15:20:23.586Z,44.40
2022-11-28T15:30:29.853Z,39.30
2022-11-28T15:40:37.667Z,41.40
2022-11-28T15:50:51.343Z,45.90
2022-11-28T16:01:11.787Z,48.20
2022-11-28T16:11:20.928Z,47.10
2022-11-28T16:21:30.877Z,46.30
2022-11-28T16:31:37.169Z,49.90
2022-11-28T16:42:08.753Z,45.90
2022-11-28T16:52:22.996Z,45.60
2022-11-28T17:02:29.499Z,45.70
2022-11-28T17:12:38.162Z,53.50
2022-11-28T17:22:47.516Z,53.90
2022-11-28T17:32:53.852Z,58.00
2022-11-28T17:43:00.648Z,57.60
2022-11-28T17:53:06.861Z,55.90
2022-11-28T18:03:13.541Z,59.60
2022-11-28T18:13:20.341Z,55.20
2022-11-28T18:23:26.627Z,45.60
2022-11-28T18:33:35.383Z,50.40
2022-11-28T18:43:41.679Z,52.30
2022-11-28T18:53:48.999Z,50.90
2022-11-28T19:04:03.798Z,55.80
2022-11-28T19:14:14.058Z,52.00
2022-11-28T19:24:20.439Z,68.80
2022-11-28T19:34:27.015Z,56.00
2022-11-28T19:44:33.309Z,54.40
2022-11-28T19:54:39.642Z,63.80
2022-11-28T20:04:46.018Z,63.50
2022-11-28T20:14:52.288Z,52.80
2022-11-28T20:24:58.572Z,57.80
2022-11-28T20:35:06.043Z,48.80
2022-11-28T20:45:12.508Z,56.60
2022-11-28T20:55:18.836Z,74.00
2022-11-28T21:05:26.622Z,55.00
2022-11-28T21:15:32.988Z,51.60
2022-11-28T21:25:40.391Z,55.60
2022-11-28T21:35:47.016Z,54.30
2022-11-28T21:45:53.245Z,65.30
2022-11-28T21:56:03.720Z,57.00
2022-11-28T22:06:21.722Z,60.00
2022-11-28T22:16:29.805Z,56.40
2022-11-28T22:26:36.149Z,56.40
2022-11-28T22:36:42.441Z,62.60
2022-11-28T22:46:48.767Z,59.80
2022-11-28T22:56:56.349Z,58.20
2022-11-28T23:07:02.670Z,56.10
2022-11-28T23:17:08.941Z,55.00
2022-11-28T23:27:15.247Z,56.70
2022-11-28T23:37:21.862Z,64.70
2022-11-28T23:47:28.124Z,68.80
2022-11-28T23:57:34.430Z,68.50
